YM Uniform — A8OR8 — position and weather

sailwx.info

Track history (hours):
 
Tides and Currents Weather Stations Pressure Air Temp Water Temp Dewpoint Dewpoint Depression Visibility Wind Speed Wind Dir Waves Ship Positions

YM Uniform

Last reported at 2018-Jan-12 14:58 UTC. Time now 2018-Jan-23 06:17 UTC.
Position N 31°20' E 121°42'.
Warning: this ship's position is 10 days out of date.

Length 333 m; draft 11.5 m.

Type: Cargo ship. MMSI: 636013693.

Date/timePositionNaut miles runAvg speedWind from/ knotsBaromVisibWave heightAir tempDewpointWater temp
2018-Jan-12 14:58N 31°20' E 121°42'3 7.5
2018-Jan-12 14:30N 31°21' E 121°38'1 2.1
2018-Jan-12 13:59N 31°22' E 121°37'2 3.8
2018-Jan-12 13:28N 31°23' E 121°35'0 0.4
2018-Jan-12 12:32N 31°23' E 121°35'0 0.0
2018-Jan-12 12:14N 31°23' E 121°35'0 0.0
2018-Jan-12 11:56N 31°23' E 121°35'0 0.0
2018-Jan-12 11:05N 31°23' E 121°35'0 0.0
2018-Jan-12 10:59N 31°23' E 121°35'0 0.0
2018-Jan-12 09:56N 31°23' E 121°35'0 0.0
2018-Jan-12 09:23N 31°23' E 121°35'0 0.0
2018-Jan-12 08:50N 31°23' E 121°35'0 0.0
2018-Jan-12 07:31N 31°23' E 121°35'0 0.0
2018-Jan-12 07:08N 31°23' E 121°35'0 0.0
2018-Jan-12 06:44N 31°23' E 121°35'0 0.0
2018-Jan-12 06:26N 31°23' E 121°35'0 0.0
2018-Jan-12 05:55N 31°23' E 121°35'0 0.0
2018-Jan-11 21:14N 31°23' E 121°35'0 0.0
2018-Jan-11 20:56N 31°23' E 121°35'0 0.0
2018-Jan-11 20:26N 31°23' E 121°35'0 0.0
2018-Jan-11 19:12N 31°23' E 121°35'0 0.0
2018-Jan-11 16:24N 31°23' E 121°35'0 0.0
2018-Jan-11 15:54N 31°23' E 121°35'0 0.0
2018-Jan-11 15:24N 31°23' E 121°35'0 0.0
2018-Jan-11 14:42N 31°23' E 121°35'0 0.0
2018-Jan-11 14:24N 31°23' E 121°35'0 0.0
2018-Jan-11 13:54N 31°23' E 121°35'0 0.0
2018-Jan-11 13:06N 31°23' E 121°35'0 0.0
2018-Jan-11 12:42N 31°23' E 121°35'0 0.0
2018-Jan-11 12:24N 31°23' E 121°35'0 0.0
2018-Jan-11 12:00N 31°23' E 121°35'0 0.5
2018-Jan-11 11:28N 31°23' E 121°35'3 5.6
2018-Jan-11 10:57N 31°22' E 121°38'811.0
2018-Jan-11 10:16N 31°18' E 121°46'610.5
2018-Jan-11 09:43N 31°16' E 121°52'210.0
2018-Jan-11 09:31N 31°16' E 121°54'714.0
2018-Jan-11 09:00N 31°15' E 122°03'611.4
2018-Jan-11 08:29N 31°12' E 122°09'5 8.9
2018-Jan-11 07:58N 31°09' E 122°13'4 9.1
2018-Jan-11 07:30N 31°07' E 122°17'4 8.3
2018-Jan-11 07:00N 31°06' E 122°22'4 8.3
2018-Jan-11 06:29N 31°06' E 122°27'  
2018-Jan-07 11:01N 36°02' E 120°17'0 3.4
2018-Jan-07 11:00N 36°02' E 120°17'4 0.4
2018-Jan-07 01:34N 36°00' E 120°12'0 0.0
2018-Jan-07 01:11N 36°00' E 120°12'0 0.0
2018-Jan-06 23:17N 36°00' E 120°12'0 0.0
2018-Jan-06 22:57N 36°00' E 120°12'0 0.0
2018-Jan-06 22:03N 36°00' E 120°12'0 0.0
2018-Jan-06 21:46N 36°00' E 120°12'0 0.0
2018-Jan-06 21:30N 36°00' E 120°12'3 2.4
2018-Jan-06 20:20N 36°02' E 120°15'5 9.9
2018-Jan-06 19:50N 36°01' E 120°21'510.7
2018-Jan-06 19:23N 36°00' E 120°27'410.7
2018-Jan-06 18:58N 35°60' E 120°32'46212.4
2018-Jan-05 05:47N 34°22' E 129°44'1616.6
2018-Jan-05 04:50N 34°31' E 129°59'62718.0
2018-Jan-03 17:56N 41°15' E 140°06'715.7
2018-Jan-03 17:30N 41°19' E 140°14'713.6
2018-Jan-03 17:00N 41°22' E 140°21'816.0
2018-Jan-03 16:30N 41°27' E 140°30'815.8
2018-Jan-03 16:01N 41°31' E 140°39'816.4
2018-Jan-03 15:30N 41°36' E 140°48'714.0
2018-Jan-03 15:00N 41°38' E 140°57'714.5
2018-Jan-03 14:30N 41°38' E 141°07'816.6
2018-Jan-03 14:00N 41°39' E 141°18'817.0
2018-Jan-03 13:30N 41°39' E 141°29'  
Track history (hours):
 
Tides and Currents Weather Stations Pressure Air Temp Water Temp Dewpoint Dewpoint Depression Visibility Wind Speed Wind Dir Waves Ship Positions

YM Uniform

Last reported at 2018-Jan-12 14:58 UTC. Time now 2018-Jan-23 06:17 UTC.
Position N 31°20' E 121°42'.
Warning: this ship's position is 10 days out of date.

Length 333 m; draft 11.5 m.

Type: Cargo ship. MMSI: 636013693.

Date/timePositionNaut miles runAvg speedWind from/ knotsBaromVisibWave heightAir tempDewpointWater temp
2018-Jan-12 14:58N 31°20' E 121°42'3 7.5
2018-Jan-12 14:30N 31°21' E 121°38'1 2.1
2018-Jan-12 13:59N 31°22' E 121°37'2 3.8
2018-Jan-12 13:28N 31°23' E 121°35'0 0.4
2018-Jan-12 12:32N 31°23' E 121°35'0 0.0
2018-Jan-12 12:14N 31°23' E 121°35'0 0.0
2018-Jan-12 11:56N 31°23' E 121°35'0 0.0
2018-Jan-12 11:05N 31°23' E 121°35'0 0.0
2018-Jan-12 10:59N 31°23' E 121°35'0 0.0
2018-Jan-12 09:56N 31°23' E 121°35'0 0.0
2018-Jan-12 09:23N 31°23' E 121°35'0 0.0
2018-Jan-12 08:50N 31°23' E 121°35'0 0.0
2018-Jan-12 07:31N 31°23' E 121°35'0 0.0
2018-Jan-12 07:08N 31°23' E 121°35'0 0.0
2018-Jan-12 06:44N 31°23' E 121°35'0 0.0
2018-Jan-12 06:26N 31°23' E 121°35'0 0.0
2018-Jan-12 05:55N 31°23' E 121°35'0 0.0
2018-Jan-11 21:14N 31°23' E 121°35'0 0.0
2018-Jan-11 20:56N 31°23' E 121°35'0 0.0
2018-Jan-11 20:26N 31°23' E 121°35'0 0.0
2018-Jan-11 19:12N 31°23' E 121°35'0 0.0
2018-Jan-11 16:24N 31°23' E 121°35'0 0.0
2018-Jan-11 15:54N 31°23' E 121°35'0 0.0
2018-Jan-11 15:24N 31°23' E 121°35'0 0.0
2018-Jan-11 14:42N 31°23' E 121°35'0 0.0
2018-Jan-11 14:24N 31°23' E 121°35'0 0.0
2018-Jan-11 13:54N 31°23' E 121°35'0 0.0
2018-Jan-11 13:06N 31°23' E 121°35'0 0.0
2018-Jan-11 12:42N 31°23' E 121°35'0 0.0
2018-Jan-11 12:24N 31°23' E 121°35'0 0.0
2018-Jan-11 12:00N 31°23' E 121°35'0 0.5
2018-Jan-11 11:28N 31°23' E 121°35'3 5.6
2018-Jan-11 10:57N 31°22' E 121°38'811.0
2018-Jan-11 10:16N 31°18' E 121°46'610.5
2018-Jan-11 09:43N 31°16' E 121°52'210.0
2018-Jan-11 09:31N 31°16' E 121°54'714.0
2018-Jan-11 09:00N 31°15' E 122°03'611.4
2018-Jan-11 08:29N 31°12' E 122°09'5 8.9
2018-Jan-11 07:58N 31°09' E 122°13'4 9.1
2018-Jan-11 07:30N 31°07' E 122°17'4 8.3
2018-Jan-11 07:00N 31°06' E 122°22'4 8.3
2018-Jan-11 06:29N 31°06' E 122°27'  
2018-Jan-07 11:01N 36°02' E 120°17'0 3.4
2018-Jan-07 11:00N 36°02' E 120°17'4 0.4
2018-Jan-07 01:34N 36°00' E 120°12'0 0.0
2018-Jan-07 01:11N 36°00' E 120°12'0 0.0
2018-Jan-06 23:17N 36°00' E 120°12'0 0.0
2018-Jan-06 22:57N 36°00' E 120°12'0 0.0
2018-Jan-06 22:03N 36°00' E 120°12'0 0.0
2018-Jan-06 21:46N 36°00' E 120°12'0 0.0
2018-Jan-06 21:30N 36°00' E 120°12'3 2.4
2018-Jan-06 20:20N 36°02' E 120°15'5 9.9
2018-Jan-06 19:50N 36°01' E 120°21'510.7
2018-Jan-06 19:23N 36°00' E 120°27'410.7
2018-Jan-06 18:58N 35°60' E 120°32'46212.4
2018-Jan-05 05:47N 34°22' E 129°44'1616.6
2018-Jan-05 04:50N 34°31' E 129°59'62718.0
2018-Jan-03 17:56N 41°15' E 140°06'715.7
2018-Jan-03 17:30N 41°19' E 140°14'713.6
2018-Jan-03 17:00N 41°22' E 140°21'816.0
2018-Jan-03 16:30N 41°27' E 140°30'815.8
2018-Jan-03 16:01N 41°31' E 140°39'816.4
2018-Jan-03 15:30N 41°36' E 140°48'714.0
2018-Jan-03 15:00N 41°38' E 140°57'714.5
2018-Jan-03 14:30N 41°38' E 141°07'816.6
2018-Jan-03 14:00N 41°39' E 141°18'817.0
2018-Jan-03 13:30N 41°39' E 141°29'  

Dump ship's entire track history